createdAt,value
2022-07-30T00:00:57.172Z,101835.59
2022-07-30T00:03:23.895Z,101836.13
2022-07-30T00:05:50.661Z,101804.78
2022-07-30T00:08:17.236Z,101838.75
2022-07-30T00:10:43.929Z,101827.19
2022-07-30T00:13:14.269Z,101826.88
2022-07-30T00:15:41.072Z,101824.81
2022-07-30T00:18:07.828Z,101817.94
2022-07-30T00:20:34.486Z,101826.91
2022-07-30T00:23:06.090Z,101810.19
2022-07-30T00:25:35.239Z,101816.72
2022-07-30T00:28:01.806Z,101808.31
2022-07-30T00:30:28.426Z,101810.38
2022-07-30T00:32:57.320Z,101815.91
2022-07-30T00:35:23.985Z,101809.00
2022-07-30T00:37:50.704Z,101794.06
2022-07-30T00:40:17.299Z,101814.72
2022-07-30T00:42:46.111Z,101810.63
2022-07-30T00:45:14.313Z,101821.00
2022-07-30T00:47:45.875Z,101827.38
2022-07-30T00:50:13.839Z,101826.69
2022-07-30T00:52:41.279Z,101821.69
2022-07-30T00:55:14.085Z,101814.59
2022-07-30T00:57:41.623Z,101820.31
2022-07-30T01:00:13.413Z,101821.72
2022-07-30T01:02:40.421Z,101810.84
2022-07-30T01:05:07.713Z,101813.63
2022-07-30T01:07:34.520Z,101815.16
2022-07-30T01:10:01.414Z,101817.22
2022-07-30T01:12:28.599Z,101806.00
2022-07-30T01:14:59.656Z,101802.91
2022-07-30T01:17:28.565Z,101809.09
2022-07-30T01:19:59.445Z,101807.38
2022-07-30T01:22:39.468Z,101803.06
2022-07-30T01:25:11.947Z,101806.34
2022-07-30T01:27:55.061Z,101804.44
2022-07-30T01:30:25.448Z,101797.91
2022-07-30T01:32:54.568Z,101807.38
2022-07-30T01:35:23.558Z,101807.91
2022-07-30T01:37:55.684Z,101813.59
2022-07-30T01:40:25.296Z,101806.72
2022-07-30T01:42:57.673Z,101808.78
2022-07-30T01:45:28.763Z,101800.84
2022-07-30T01:48:02.915Z,101809.63
2022-07-30T01:50:30.806Z,101804.47
2022-07-30T01:52:58.999Z,101803.94
2022-07-30T01:55:30.834Z,101819.44
2022-07-30T01:57:59.171Z,101809.47
2022-07-30T02:00:30.946Z,101815.16
2022-07-30T02:02:58.781Z,101811.00
2022-07-30T02:05:28.111Z,101822.03
2022-07-30T02:08:26.950Z,101818.56
2022-07-30T02:11:08.871Z,101810.97
2022-07-30T02:13:44.347Z,101807.19
2022-07-30T02:16:18.394Z,101819.94
2022-07-30T02:18:58.585Z,101815.97
2022-07-30T02:21:34.042Z,101818.00
2022-07-30T02:24:12.023Z,101818.38
2022-07-30T02:26:42.998Z,101820.25
2022-07-30T02:29:11.733Z,101827.66
2022-07-30T02:31:41.080Z,101819.72
2022-07-30T02:34:09.008Z,101813.53
2022-07-30T02:36:37.179Z,101821.06
2022-07-30T02:39:05.016Z,101791.19
2022-07-30T02:41:32.966Z,101822.59
2022-07-30T02:44:00.629Z,101825.69
2022-07-30T02:46:28.779Z,101819.31
2022-07-30T02:48:57.601Z,101818.59
2022-07-30T02:51:26.025Z,101811.88
2022-07-30T02:53:55.295Z,101808.09
2022-07-30T02:56:22.954Z,101813.06
2022-07-30T02:58:51.529Z,101818.22
2022-07-30T03:01:21.803Z,101823.72
2022-07-30T03:03:49.756Z,101831.31
2022-07-30T03:06:18.239Z,101825.28
2022-07-30T03:08:47.105Z,101831.97
2022-07-30T03:11:17.500Z,101827.28
2022-07-30T03:13:44.658Z,101833.50
2022-07-30T03:16:13.725Z,101826.06
2022-07-30T03:18:43.047Z,101835.00
2022-07-30T03:21:11.918Z,101840.00
2022-07-30T03:23:44.218Z,101832.22
2022-07-30T03:26:12.730Z,101802.00
2022-07-30T03:28:40.874Z,101816.50
2022-07-30T03:31:08.622Z,101830.84
2022-07-30T03:33:38.745Z,101831.84
2022-07-30T03:36:07.341Z,101827.69
2022-07-30T03:38:36.703Z,101825.97
2022-07-30T03:41:05.146Z,101823.72
2022-07-30T03:43:33.423Z,101835.25
2022-07-30T03:46:03.552Z,101832.81
2022-07-30T03:48:31.475Z,101822.28
2022-07-30T03:50:59.130Z,101829.84
2022-07-30T03:53:27.647Z,101841.41
2022-07-30T03:55:54.947Z,101843.63
2022-07-30T03:58:22.421Z,101849.28
2022-07-30T04:00:50.315Z,101832.41
2022-07-30T04:03:32.463Z,101838.06
2022-07-30T04:05:59.402Z,101844.25
2022-07-30T04:08:27.307Z,101852.69
2022-07-30T04:10:54.050Z,101850.09
2022-07-30T04:13:20.693Z,101861.66
2022-07-30T04:16:38.795Z,101851.47
2022-07-30T04:19:01.941Z,101865.28
2022-07-30T04:21:30.021Z,101857.50
2022-07-30T04:24:05.002Z,101854.91
2022-07-30T04:26:33.929Z,101859.75
2022-07-30T04:29:02.158Z,101863.41
2022-07-30T04:31:29.790Z,101866.34
2022-07-30T04:34:02.801Z,101869.66
2022-07-30T04:36:35.735Z,101864.53
2022-07-30T04:39:03.443Z,101878.66
2022-07-30T04:41:48.665Z,101884.22
2022-07-30T04:44:17.782Z,101870.13
2022-07-30T04:46:44.503Z,101878.41
2022-07-30T04:49:13.036Z,101879.47
2022-07-30T04:51:41.049Z,101867.44
2022-07-30T04:54:15.075Z,101876.97
2022-07-30T04:56:53.197Z,101879.41
2022-07-30T04:59:23.816Z,101880.63
2022-07-30T05:01:52.358Z,101888.22
2022-07-30T05:04:20.491Z,101886.06
2022-07-30T05:06:47.797Z,101879.78
2022-07-30T05:09:16.266Z,101880.22
2022-07-30T05:11:49.531Z,101856.41
2022-07-30T05:14:16.477Z,101879.19
2022-07-30T05:16:43.090Z,101883.81
2022-07-30T05:19:09.693Z,101876.09
2022-07-30T05:21:36.237Z,101881.78
2022-07-30T05:24:05.234Z,101879.63
2022-07-30T05:26:31.818Z,101876.63
2022-07-30T05:29:00.761Z,101885.41
2022-07-30T05:31:31.124Z,101880.59
2022-07-30T05:34:02.950Z,101873.06
2022-07-30T05:36:32.282Z,101883.72
2022-07-30T05:39:01.340Z,101885.72
2022-07-30T05:41:32.885Z,101878.31
2022-07-30T05:44:00.734Z,101882.63
2022-07-30T05:46:27.953Z,101883.06
2022-07-30T05:48:54.651Z,101891.16
2022-07-30T05:51:22.232Z,101889.28
2022-07-30T05:53:51.825Z,101879.13
2022-07-30T05:56:20.950Z,101886.22
2022-07-30T05:58:50.007Z,101879.03
2022-07-30T06:01:16.897Z,101892.03
2022-07-30T06:03:43.452Z,101891.28
2022-07-30T06:06:10.049Z,101897.94
2022-07-30T06:08:39.415Z,101897.78
2022-07-30T06:11:08.841Z,101882.41
2022-07-30T06:13:35.986Z,101842.63
2022-07-30T06:16:02.662Z,101899.16
2022-07-30T06:18:29.238Z,101911.03
2022-07-30T06:20:58.177Z,101897.03
2022-07-30T06:23:24.797Z,101914.16
2022-07-30T06:25:53.570Z,101911.94
2022-07-30T06:28:37.094Z,101905.47
2022-07-30T06:31:05.733Z,101913.91
2022-07-30T06:33:32.702Z,101912.19
2022-07-30T06:35:59.500Z,101908.22
2022-07-30T06:38:26.101Z,101897.91
2022-07-30T06:40:58.115Z,101919.81
2022-07-30T06:43:28.031Z,101911.22
2022-07-30T06:45:54.773Z,101912.84
2022-07-30T06:48:23.592Z,101925.75
2022-07-30T06:50:50.194Z,101924.69
2022-07-30T06:53:19.730Z,101920.34
2022-07-30T06:55:46.307Z,101927.97
2022-07-30T06:58:12.862Z,101932.13
2022-07-30T07:00:39.417Z,101926.88
2022-07-30T07:03:09.966Z,101932.09
2022-07-30T07:05:38.866Z,101927.78
2022-07-30T07:08:05.659Z,101931.53
2022-07-30T07:10:32.518Z,101940.19
2022-07-30T07:13:04.008Z,101937.38
2022-07-30T07:15:36.801Z,101940.97
2022-07-30T07:18:06.740Z,101925.00
2022-07-30T07:20:34.766Z,101924.94
2022-07-30T07:23:06.570Z,101927.84
2022-07-30T07:25:36.418Z,101929.50
2022-07-30T07:28:12.870Z,101929.53
2022-07-30T07:30:44.343Z,101929.72
2022-07-30T07:33:12.234Z,101926.56
2022-07-30T07:35:48.647Z,101931.22
2022-07-30T07:38:17.016Z,101918.88
2022-07-30T07:40:43.634Z,101942.34
2022-07-30T07:43:10.195Z,101927.59
2022-07-30T07:45:39.527Z,101938.25
2022-07-30T07:48:06.358Z,101935.28
2022-07-30T07:50:35.127Z,101932.66
2022-07-30T07:53:01.659Z,101926.06
2022-07-30T07:55:28.244Z,101921.06
2022-07-30T07:57:58.361Z,101929.00
2022-07-30T08:00:25.256Z,101925.63
2022-07-30T08:02:51.894Z,101927.88
2022-07-30T08:05:18.682Z,101924.50
2022-07-30T08:07:47.683Z,101920.75
2022-07-30T08:10:17.283Z,101922.91
2022-07-30T08:12:43.837Z,101917.56
2022-07-30T08:15:10.990Z,101923.00
2022-07-30T08:17:42.125Z,101894.44
2022-07-30T08:20:10.033Z,101915.78
2022-07-30T08:22:36.852Z,101929.72
2022-07-30T08:25:04.640Z,101920.78
2022-07-30T08:27:31.575Z,101926.38
2022-07-30T08:29:58.228Z,101923.69
2022-07-30T08:32:25.403Z,101919.16
2022-07-30T08:34:59.325Z,101920.28
2022-07-30T08:37:29.154Z,101920.78
2022-07-30T08:39:55.982Z,101920.91
2022-07-30T08:42:23.586Z,101927.56
2022-07-30T08:44:53.773Z,101913.44
2022-07-30T08:47:26.283Z,101915.19
2022-07-30T08:49:53.504Z,101923.19
2022-07-30T08:52:20.737Z,101924.75
2022-07-30T08:54:47.607Z,101918.69
2022-07-30T08:57:14.432Z,101938.47
2022-07-30T09:00:00.799Z,101928.28
2022-07-30T09:02:33.843Z,101913.06
2022-07-30T09:05:00.490Z,101927.81
2022-07-30T09:07:29.454Z,101915.84
2022-07-30T09:09:56.732Z,101917.75
2022-07-30T09:12:33.288Z,101899.25
2022-07-30T09:15:06.044Z,101923.91
2022-07-30T09:17:54.507Z,101927.78
2022-07-30T09:20:23.414Z,101933.81
2022-07-30T09:22:53.077Z,101932.13
2022-07-30T09:25:45.925Z,101939.69
2022-07-30T09:28:16.185Z,101951.47
2022-07-30T09:30:49.374Z,101959.94
2022-07-30T09:33:32.151Z,101943.91
2022-07-30T09:35:59.390Z,101946.81
2022-07-30T09:38:26.400Z,101953.06
2022-07-30T09:40:58.099Z,101939.22
2022-07-30T09:43:27.808Z,101919.19
2022-07-30T09:45:58.860Z,101940.59
2022-07-30T09:48:27.314Z,101947.00
2022-07-30T09:50:55.333Z,101943.25
2022-07-30T09:53:24.597Z,101931.91
2022-07-30T09:55:51.265Z,101928.78
2022-07-30T09:58:27.134Z,101942.41
2022-07-30T10:00:59.598Z,101933.16
2022-07-30T10:03:33.276Z,101928.63
2022-07-30T10:06:03.852Z,101928.84
2022-07-30T10:08:41.587Z,101931.06
2022-07-30T10:11:15.686Z,101929.75
2022-07-30T10:13:45.684Z,101931.06
2022-07-30T10:16:13.219Z,101909.84
2022-07-30T10:18:42.523Z,101924.88
2022-07-30T10:21:11.189Z,101930.69
2022-07-30T10:23:44.195Z,101910.81
2022-07-30T10:26:12.480Z,101914.97
2022-07-30T10:28:48.037Z,101919.09
2022-07-30T10:31:49.299Z,101931.22
2022-07-30T10:34:02.713Z,101928.34
2022-07-30T10:36:30.604Z,101925.13
2022-07-30T10:38:57.550Z,101924.44
2022-07-30T10:41:53.933Z,101923.31
2022-07-30T10:44:44.350Z,101930.34
2022-07-30T10:47:14.187Z,101916.94
2022-07-30T10:49:42.998Z,101917.66
2022-07-30T10:52:10.886Z,101929.28
2022-07-30T10:54:40.317Z,101833.97
2022-07-30T10:57:08.577Z,101927.59
2022-07-30T10:59:50.361Z,101927.06
2022-07-30T11:02:19.712Z,101923.97
2022-07-30T11:04:46.729Z,101914.56
2022-07-30T11:07:33.599Z,101922.94
2022-07-30T11:10:05.163Z,101896.31
2022-07-30T11:12:45.042Z,101924.28
2022-07-30T11:15:18.607Z,101922.94
2022-07-30T11:18:12.368Z,101924.69
2022-07-30T11:20:41.016Z,101920.44
2022-07-30T11:23:20.785Z,101919.91
2022-07-30T11:25:51.124Z,101919.44
2022-07-30T11:28:39.285Z,101915.91
2022-07-30T11:31:36.819Z,101912.50
2022-07-30T11:34:18.348Z,101902.72
2022-07-30T11:37:19.286Z,101902.72
2022-07-30T11:39:55.237Z,101910.69
2022-07-30T11:42:32.650Z,101899.31
2022-07-30T11:45:23.239Z,101906.88
2022-07-30T11:47:51.658Z,101907.25
2022-07-30T11:50:23.852Z,101905.56
2022-07-30T11:53:06.932Z,101904.66
2022-07-30T11:55:40.336Z,101907.88
2022-07-30T11:58:10.479Z,101896.78
2022-07-30T12:00:38.531Z,101912.38
2022-07-30T12:03:15.566Z,101911.78
2022-07-30T12:05:43.526Z,101915.88
2022-07-30T12:08:31.555Z,101914.19
2022-07-30T12:11:00.343Z,101901.44
2022-07-30T12:13:43.470Z,101907.84
2022-07-30T12:16:16.057Z,101906.31
2022-07-30T12:18:44.074Z,101912.63
2022-07-30T12:21:17.604Z,101913.13
2022-07-30T12:24:07.577Z,101905.88
2022-07-30T12:26:35.257Z,101907.59
2022-07-30T12:29:05.235Z,101912.97
2022-07-30T12:31:33.800Z,101907.28
2022-07-30T12:34:00.994Z,101907.91
2022-07-30T12:36:32.800Z,101915.97
2022-07-30T12:39:00.993Z,101905.88
2022-07-30T12:41:45.143Z,101907.50
2022-07-30T12:44:45.042Z,101896.78
2022-07-30T12:47:31.115Z,101898.91
2022-07-30T12:50:00.686Z,101902.66
2022-07-30T12:52:35.829Z,101889.88
2022-07-30T12:55:10.791Z,101887.41
2022-07-30T12:57:57.123Z,101895.47
2022-07-30T13:00:26.922Z,101901.78
2022-07-30T13:02:53.855Z,101886.81
2022-07-30T13:05:20.636Z,101899.75
2022-07-30T13:07:58.721Z,101875.28
2022-07-30T13:10:30.461Z,101890.22
2022-07-30T13:12:58.456Z,101886.97
2022-07-30T13:15:25.378Z,101884.22
2022-07-30T13:17:52.067Z,101880.09
2022-07-30T13:20:18.956Z,101887.03
2022-07-30T13:22:45.754Z,101894.88
2022-07-30T13:25:12.947Z,101884.16
2022-07-30T13:27:39.765Z,101875.84
2022-07-30T13:30:09.889Z,101873.34
2022-07-30T13:32:36.628Z,101870.00
2022-07-30T13:35:03.858Z,101851.03
2022-07-30T13:37:38.141Z,101868.44
2022-07-30T13:40:06.097Z,101877.28
2022-07-30T13:42:32.796Z,101876.47
2022-07-30T13:44:59.436Z,101868.84
2022-07-30T13:47:28.150Z,101879.59
2022-07-30T13:49:54.747Z,101874.72
2022-07-30T13:52:21.324Z,101873.13
2022-07-30T13:54:48.260Z,101871.22
2022-07-30T13:57:14.841Z,101865.69
2022-07-30T13:59:41.498Z,101869.50
2022-07-30T14:02:08.931Z,101871.09
2022-07-30T14:04:35.520Z,101867.34
2022-07-30T14:07:02.540Z,101862.81
2022-07-30T14:09:29.267Z,101861.22
2022-07-30T14:11:56.073Z,101859.69
2022-07-30T14:14:22.632Z,101867.72
2022-07-30T14:16:58.977Z,101860.81
2022-07-30T14:19:25.674Z,101860.53
2022-07-30T14:21:53.857Z,101854.63
2022-07-30T14:24:23.676Z,101843.50
2022-07-30T14:26:55.848Z,101850.16
2022-07-30T14:29:24.735Z,101859.75
2022-07-30T14:31:51.604Z,101857.19
2022-07-30T14:34:19.196Z,101824.84
2022-07-30T14:36:45.765Z,101840.44
2022-07-30T14:39:14.874Z,101842.00
2022-07-30T14:41:43.017Z,101854.72
2022-07-30T14:44:12.211Z,101850.91
2022-07-30T14:46:39.656Z,101849.19
2022-07-30T14:49:19.554Z,101843.56
2022-07-30T14:51:46.172Z,101839.44
2022-07-30T14:54:12.807Z,101834.47
2022-07-30T14:56:39.671Z,101831.97
2022-07-30T14:59:09.244Z,101824.00
2022-07-30T15:01:35.946Z,101831.88
2022-07-30T15:04:09.508Z,101829.47
2022-07-30T15:06:37.498Z,101830.41
2022-07-30T15:09:04.396Z,101833.22
2022-07-30T15:11:40.236Z,101837.66
2022-07-30T15:14:17.765Z,101829.69
2022-07-30T15:16:47.990Z,101832.25
2022-07-30T15:19:17.046Z,101821.72
2022-07-30T15:21:44.817Z,101829.75
2022-07-30T15:24:13.606Z,101829.75
2022-07-30T15:26:40.176Z,101831.06
2022-07-30T15:29:11.601Z,101828.47
2022-07-30T15:31:39.862Z,101831.03
2022-07-30T15:34:10.764Z,101833.94
2022-07-30T15:36:38.991Z,101829.81
2022-07-30T15:39:06.590Z,101828.38
2022-07-30T15:41:33.542Z,101837.06
2022-07-30T15:44:00.138Z,101827.97
2022-07-30T15:46:31.267Z,101838.69
2022-07-30T15:48:57.936Z,101838.41
2022-07-30T15:51:24.596Z,101840.69
2022-07-30T15:53:51.149Z,101843.00
2022-07-30T15:56:18.749Z,101841.03
2022-07-30T15:58:45.306Z,101836.72
2022-07-30T16:01:12.161Z,101836.84
2022-07-30T16:03:41.072Z,101838.25
2022-07-30T16:06:07.672Z,101825.84
2022-07-30T16:08:34.356Z,101828.78
2022-07-30T16:11:04.532Z,101835.63
2022-07-30T16:13:34.479Z,101832.22
2022-07-30T16:16:01.337Z,101830.75
2022-07-30T16:18:27.905Z,101820.09
2022-07-30T16:20:58.547Z,101828.91
2022-07-30T16:23:25.371Z,101824.91
2022-07-30T16:25:51.943Z,101788.88
2022-07-30T16:28:21.113Z,101815.81
2022-07-30T16:30:51.700Z,101818.97
2022-07-30T16:33:19.507Z,101817.06
2022-07-30T16:35:49.038Z,101810.75
2022-07-30T16:38:17.963Z,101815.75
2022-07-30T16:40:49.515Z,101819.06
2022-07-30T16:43:19.536Z,101818.69
2022-07-30T16:45:46.847Z,101821.88
2022-07-30T16:48:13.852Z,101819.66
2022-07-30T16:50:41.423Z,101821.38
2022-07-30T16:53:13.841Z,101818.44
2022-07-30T16:55:41.642Z,101822.94
2022-07-30T16:58:10.709Z,101822.94
2022-07-30T17:00:38.011Z,101816.00
2022-07-30T17:03:04.679Z,101807.22
2022-07-30T17:05:31.548Z,101821.09
2022-07-30T17:07:58.286Z,101810.50
2022-07-30T17:10:26.359Z,101825.66
2022-07-30T17:12:56.963Z,101820.28
2022-07-30T17:15:32.374Z,101816.91
2022-07-30T17:18:00.764Z,101819.16
2022-07-30T17:20:27.913Z,101821.13
2022-07-30T17:22:56.255Z,101819.53
2022-07-30T17:25:27.721Z,101814.50
2022-07-30T17:27:58.851Z,101817.31
2022-07-30T17:30:27.306Z,101817.19
2022-07-30T17:32:56.797Z,101824.25
2022-07-30T17:35:24.738Z,101820.06
2022-07-30T17:37:51.783Z,101812.88
2022-07-30T17:40:27.824Z,101821.78
2022-07-30T17:43:03.788Z,101793.16
2022-07-30T17:45:34.816Z,101807.06
2022-07-30T17:48:02.214Z,101805.78
2022-07-30T17:50:32.415Z,101819.03
2022-07-30T17:52:59.635Z,101820.06
2022-07-30T17:55:28.052Z,101816.75
2022-07-30T17:57:54.757Z,101813.31
2022-07-30T18:00:22.825Z,101813.50
2022-07-30T18:02:49.332Z,101812.47
2022-07-30T18:05:16.090Z,101803.53
2022-07-30T18:07:43.950Z,101800.56
2022-07-30T18:10:11.237Z,101803.22
2022-07-30T18:12:38.201Z,101796.69
2022-07-30T18:15:08.333Z,101798.63
2022-07-30T18:17:34.945Z,101800.00
2022-07-30T18:20:01.712Z,101794.88
2022-07-30T18:22:29.821Z,101808.25
2022-07-30T18:25:00.901Z,101807.00
2022-07-30T18:27:27.875Z,101806.59
2022-07-30T18:29:56.840Z,101813.75
2022-07-30T18:32:24.687Z,101812.50
2022-07-30T18:34:53.688Z,101811.00
2022-07-30T18:37:20.316Z,101817.44
2022-07-30T18:39:46.857Z,101808.25
2022-07-30T18:42:13.444Z,101810.09
2022-07-30T18:44:39.972Z,101810.75
2022-07-30T18:47:07.029Z,101796.56
2022-07-30T18:49:37.084Z,101809.84
2022-07-30T18:52:05.396Z,101795.50
2022-07-30T18:54:32.301Z,101801.75
2022-07-30T18:56:58.868Z,101803.00
2022-07-30T18:59:25.457Z,101798.75
2022-07-30T19:01:52.259Z,101798.81
2022-07-30T19:04:18.954Z,101805.69
2022-07-30T19:06:45.749Z,101817.75
2022-07-30T19:09:16.795Z,101822.72
2022-07-30T19:11:45.285Z,101810.94
2022-07-30T19:14:13.262Z,101805.41
2022-07-30T19:16:41.785Z,101807.75
2022-07-30T19:19:09.042Z,101791.75
2022-07-30T19:21:35.907Z,101806.56
2022-07-30T19:24:02.613Z,101806.81
2022-07-30T19:26:31.600Z,101805.91
2022-07-30T19:28:58.477Z,101806.34
2022-07-30T19:31:25.907Z,101792.66
2022-07-30T19:33:52.717Z,101806.22
2022-07-30T19:36:21.314Z,101803.69
2022-07-30T19:38:54.119Z,101802.66
2022-07-30T19:41:20.683Z,101808.25
2022-07-30T19:43:58.162Z,101817.28
2022-07-30T19:46:25.649Z,101817.72
2022-07-30T19:48:54.340Z,101819.44
2022-07-30T19:51:25.406Z,101825.94
2022-07-30T19:54:11.645Z,101818.44
2022-07-30T19:56:43.017Z,101794.25
2022-07-30T19:59:15.128Z,101818.66
2022-07-30T20:01:43.018Z,101812.69
2022-07-30T20:04:11.330Z,101817.38
2022-07-30T20:06:39.914Z,101816.13
2022-07-30T20:09:16.265Z,101811.22
2022-07-30T20:11:46.133Z,101808.84
2022-07-30T20:14:15.558Z,101809.03
2022-07-30T20:16:43.044Z,101800.47
2022-07-30T20:19:16.635Z,101809.28
2022-07-30T20:21:56.889Z,101802.66
2022-07-30T20:24:24.607Z,101811.03
2022-07-30T20:26:52.241Z,101819.19
2022-07-30T20:29:20.611Z,101788.78
2022-07-30T20:31:49.801Z,101812.78
2022-07-30T20:34:17.932Z,101803.13
2022-07-30T20:36:44.827Z,101814.91
2022-07-30T20:42:12.021Z,101819.88
2022-07-30T20:44:40.289Z,101819.03
2022-07-30T20:47:12.943Z,101819.03
2022-07-30T20:49:40.727Z,101819.22
2022-07-30T20:52:09.638Z,101818.16
2022-07-30T20:54:37.299Z,101813.22
2022-07-30T20:57:15.767Z,101818.56
2022-07-30T20:59:44.820Z,101814.69
2022-07-30T21:02:15.309Z,101812.78
2022-07-30T21:04:42.057Z,101805.91
2022-07-30T21:07:13.333Z,101814.69
2022-07-30T21:09:51.993Z,101813.63
2022-07-30T21:12:19.359Z,101805.06
2022-07-30T21:15:01.807Z,101807.66
2022-07-30T21:17:28.482Z,101801.19
2022-07-30T21:19:55.117Z,101794.16
2022-07-30T21:22:22.219Z,101801.44
2022-07-30T21:24:50.618Z,101799.31
2022-07-30T21:27:17.208Z,101794.38
2022-07-30T21:29:45.724Z,101795.66
2022-07-30T21:32:12.576Z,101801.88
2022-07-30T21:34:42.368Z,101799.75
2022-07-30T21:37:09.632Z,101793.31
2022-07-30T21:39:40.177Z,101792.03
2022-07-30T21:42:10.563Z,101792.06
2022-07-30T21:44:40.357Z,101796.09
2022-07-30T21:47:10.044Z,101797.38
2022-07-30T21:49:37.728Z,101797.78
2022-07-30T21:52:04.996Z,101796.09
2022-07-30T21:54:45.184Z,101792.22
2022-07-30T21:57:15.366Z,101784.72
2022-07-30T21:59:51.160Z,101785.16
2022-07-30T22:02:18.921Z,101790.28
2022-07-30T22:04:50.603Z,101788.81
2022-07-30T22:07:21.886Z,101782.78
2022-07-30T22:09:48.958Z,101797.38
2022-07-30T22:12:18.086Z,101798.22
2022-07-30T22:14:45.305Z,101796.72
2022-07-30T22:17:23.623Z,101721.03
2022-07-30T22:20:03.074Z,101804.41
2022-07-30T22:22:36.196Z,101792.22
2022-07-30T22:25:06.915Z,101793.06
2022-07-30T22:27:56.680Z,101790.91
2022-07-30T22:30:26.680Z,101793.03
2022-07-30T22:32:54.492Z,101787.41
2022-07-30T22:35:33.743Z,101790.84
2022-07-30T22:38:01.877Z,101790.78
2022-07-30T22:40:28.445Z,101799.78
2022-07-30T22:42:54.981Z,101790.56
2022-07-30T22:45:45.775Z,101790.97
2022-07-30T22:48:17.670Z,101792.47
2022-07-30T22:50:48.830Z,101793.94
2022-07-30T22:54:10.479Z,101786.41
2022-07-30T22:56:05.944Z,101778.91
2022-07-30T22:58:40.840Z,101792.97
2022-07-30T23:01:09.341Z,101789.34
2022-07-30T23:03:37.942Z,101781.56
2022-07-30T23:06:06.782Z,101808.75
2022-07-30T23:08:43.704Z,101804.38
2022-07-30T23:11:10.347Z,101793.84
2022-07-30T23:12:19.272Z,101806.34
2022-07-30T23:13:38.649Z,101793.38
2022-07-30T23:16:07.564Z,101803.25
2022-07-30T23:18:37.361Z,101799.16
2022-07-30T23:21:04.680Z,101795.53
2022-07-30T23:23:36.792Z,101800.19
2022-07-30T23:26:06.470Z,101795.91
2022-07-30T23:28:33.042Z,101782.84
2022-07-30T23:31:03.185Z,101790.38
2022-07-30T23:33:31.271Z,101788.44
2022-07-30T23:36:00.227Z,101788.84
2022-07-30T23:38:27.390Z,101787.34
2022-07-30T23:40:54.353Z,101777.50
2022-07-30T23:43:20.924Z,101773.19
2022-07-30T23:45:47.468Z,101748.50
2022-07-30T23:48:15.094Z,101774.03
2022-07-30T23:50:46.694Z,101766.75
2022-07-30T23:53:13.439Z,101737.09
2022-07-30T23:55:48.338Z,101765.22
2022-07-30T23:58:18.395Z,101741.25
